Time;durP1;ratioP1;P1;durP2;ratioP2;P2;SDS_P1;SDS_P2;PMS_P1;PMS_P2;Temp;Humidity;BMP_temperature;BMP_pressure;BME280_temperature;BME280_humidity;BME280_pressure;Samples;Min_cycle;Max_cycle;Signal;HPM_P1;HPM_P2
2022/03/01 00:01:58;;;;;;;8.87;7.00;;;6.80;80.70;;;;;;5024496;28;21141;-39
2022/03/01 00:04:24;;;;;;;9.30;6.80;;;6.70;82.60;;;;;;5025169;28;20520;-39
2022/03/01 00:06:50;;;;;;;8.30;6.50;;;6.70;82.60;;;;;;5015766;28;20910;-39
2022/03/01 00:09:16;;;;;;;9.90;6.97;;;6.80;81.60;;;;;;5027013;28;20186;-40
2022/03/01 00:11:42;;;;;;;8.80;7.00;;;6.90;80.30;;;;;;5026671;28;20417;-39
2022/03/01 00:14:08;;;;;;;9.73;7.90;;;6.90;79.50;;;;;;5026980;28;20476;-39
2022/03/01 00:16:34;;;;;;;8.80;6.57;;;7.00;79.50;;;;;;5027142;28;20189;-39
2022/03/01 00:19:00;;;;;;;7.90;6.40;;;6.90;79.70;;;;;;5025657;28;20186;-39
2022/03/01 00:21:28;;;;;;;12.40;7.50;;;7.00;80.00;;;;;;5014203;28;20822;-39
2022/03/01 00:23:53;;;;;;;8.47;7.10;;;6.70;79.50;;;;;;5026563;28;20508;-39
2022/03/01 00:26:19;;;;;;;10.93;6.90;;;6.90;80.30;;;;;;5027020;28;20516;-39
2022/03/01 00:28:45;;;;;;;9.23;6.93;;;6.80;79.70;;;;;;5027204;28;20823;-39
2022/03/01 00:31:11;;;;;;;12.40;7.80;;;6.90;79.70;;;;;;5030237;28;20181;-39
2022/03/01 00:33:37;;;;;;;8.83;7.00;;;6.50;82.30;;;;;;5030704;28;20994;-40
2022/03/01 00:36:03;;;;;;;8.60;6.70;;;6.60;85.60;;;;;;5022958;28;20537;-39
2022/03/01 00:38:28;;;;;;;7.97;6.30;;;6.00;87.10;;;;;;5030457;28;20422;-40
2022/03/01 00:40:55;;;;;;;8.47;6.40;;;5.90;90.00;;;;;;5028792;28;20836;-39
2022/03/01 00:43:21;;;;;;;9.70;6.87;;;5.60;90.40;;;;;;5030067;28;20667;-40
2022/03/01 00:45:48;;;;;;;9.10;6.70;;;5.80;91.70;;;;;;5030706;28;20421;-39
2022/03/01 00:48:14;;;;;;;9.50;7.03;;;5.80;92.00;;;;;;5030269;28;20848;-39
2022/03/01 00:50:40;;;;;;;8.47;6.63;;;5.70;90.60;;;;;;5024022;28;20421;-39
2022/03/01 00:53:06;;;;;;;10.23;7.13;;;6.00;88.90;;;;;;5024643;28;20645;-39
2022/03/01 00:55:32;;;;;;;9.40;7.57;;;6.00;85.90;;;;;;5028903;28;20182;-39
2022/03/01 00:57:58;;;;;;;9.97;7.67;;;6.20;85.40;;;;;;5030361;28;20448;-39
2022/03/01 01:00:24;;;;;;;9.77;7.37;;;6.30;85.60;;;;;;5028256;28;20487;-39
2022/03/01 01:02:50;;;;;;;9.20;7.63;;;6.30;85.60;;;;;;5030312;28;20278;-39
2022/03/01 01:05:16;;;;;;;8.70;7.00;;;6.20;83.90;;;;;;5026163;28;20199;-39
2022/03/01 01:07:42;;;;;;;9.00;6.60;;;6.60;84.00;;;;;;5021814;28;20233;-39
2022/03/01 01:10:08;;;;;;;9.10;6.80;;;6.40;83.20;;;;;;5029211;28;20804;-39
2022/03/01 01:12:35;;;;;;;11.20;8.47;;;6.30;84.50;;;;;;5030126;28;20989;-39
2022/03/01 01:15:01;;;;;;;8.97;6.93;;;6.50;83.20;;;;;;5029716;28;20482;-39
2022/03/01 01:17:27;;;;;;;9.90;6.70;;;6.40;84.40;;;;;;5030371;28;20815;-39
2022/03/01 01:19:52;;;;;;;8.93;7.60;;;6.30;84.30;;;;;;5031964;28;20412;-39
2022/03/01 01:25:03;;;;;;;9.13;7.03;;;6.50;83.40;;;;;;5029938;28;20625;-39
2022/03/01 01:27:29;;;;;;;11.50;7.80;;;6.50;83.40;;;;;;5029728;28;20452;-40
2022/03/01 01:29:54;;;;;;;9.50;7.40;;;6.40;82.70;;;;;;5028989;28;20513;-39
2022/03/01 01:32:20;;;;;;;8.20;6.93;;;6.30;83.60;;;;;;5029834;28;20182;-40
2022/03/01 01:34:46;;;;;;;11.00;7.03;;;6.20;83.60;;;;;;5028402;28;20186;-39
2022/03/01 01:37:11;;;;;;;8.97;6.70;;;6.30;83.60;;;;;;5022956;28;20233;-39
2022/03/01 01:39:37;;;;;;;10.67;7.27;;;6.10;83.70;;;;;;5028891;28;20201;-39
2022/03/01 01:42:03;;;;;;;8.00;7.17;;;6.30;83.80;;;;;;5029441;28;20186;-39
2022/03/01 01:44:30;;;;;;;9.27;7.30;;;6.20;83.90;;;;;;5029322;28;20190;-38
2022/03/01 01:46:56;;;;;;;11.23;6.97;;;6.20;84.20;;;;;;5029071;28;20636;-39
2022/03/01 01:49:22;;;;;;;10.33;7.80;;;6.30;84.10;;;;;;5028117;28;21057;-39
2022/03/01 01:51:47;;;;;;;8.50;7.00;;;6.20;84.30;;;;;;5018028;28;20433;-39
2022/03/01 01:54:14;;;;;;;8.10;6.87;;;6.20;84.60;;;;;;5027789;28;20201;-39
2022/03/01 01:56:40;;;;;;;9.80;6.90;;;6.20;84.40;;;;;;5028501;28;20202;-39
2022/03/01 01:59:05;;;;;;;10.60;7.57;;;6.40;84.20;;;;;;5028004;28;20448;-39
2022/03/01 02:01:32;;;;;;;8.83;7.53;;;6.10;83.60;;;;;;5027319;28;20425;-39
2022/03/01 02:03:59;;;;;;;10.70;7.30;;;6.20;84.50;;;;;;5027891;28;20186;-39
2022/03/01 02:06:27;;;;;;;8.77;7.30;;;6.20;84.90;;;;;;5018615;28;20452;-39
2022/03/01 02:08:53;;;;;;;9.80;7.17;;;6.00;84.80;;;;;;5020930;28;20413;-39
2022/03/01 02:11:19;;;;;;;8.80;7.10;;;6.00;84.70;;;;;;5026811;28;20446;-40
2022/03/01 02:13:44;;;;;;;9.50;6.87;;;6.10;84.70;;;;;;5026199;28;20277;-40
2022/03/01 02:16:10;;;;;;;8.10;7.30;;;6.30;84.40;;;;;;5027773;28;20512;-39
2022/03/01 02:18:38;;;;;;;10.77;7.40;;;6.20;84.40;;;;;;5027529;28;20775;-38
2022/03/01 02:21:03;;;;;;;9.73;6.97;;;6.10;84.10;;;;;;5021410;28;20450;-39
2022/03/01 02:23:29;;;;;;;9.43;7.53;;;6.10;83.90;;;;;;5019827;28;20420;-39
2022/03/01 02:25:55;;;;;;;8.87;7.37;;;6.10;83.80;;;;;;5027411;28;20650;-39
2022/03/01 02:28:20;;;;;;;11.10;7.13;;;6.10;83.90;;;;;;5027370;28;20693;-39
2022/03/01 02:30:46;;;;;;;8.00;6.50;;;6.00;84.10;;;;;;5026894;28;20178;-39
2022/03/01 02:33:12;;;;;;;8.10;6.73;;;6.00;84.80;;;;;;5006114;28;20577;-39
2022/03/01 02:35:38;;;;;;;9.20;6.37;;;5.90;84.80;;;;;;5019129;28;20672;-39
2022/03/01 02:38:04;;;;;;;9.37;7.30;;;6.00;85.70;;;;;;5017418;28;20273;-39
2022/03/01 02:40:30;;;;;;;19.63;8.87;;;5.90;85.80;;;;;;5005427;28;20521;-39
2022/03/01 02:42:56;;;;;;;11.57;7.33;;;5.90;85.00;;;;;;5026027;28;21103;-39
2022/03/01 02:45:22;;;;;;;8.40;6.80;;;5.70;85.80;;;;;;5027056;28;20492;-39
2022/03/01 02:47:48;;;;;;;9.87;6.93;;;5.70;86.20;;;;;;5027259;28;20209;-39
2022/03/01 02:50:16;;;;;;;10.67;7.23;;;5.60;86.40;;;;;;5026498;28;20241;-40
2022/03/01 02:52:42;;;;;;;7.73;6.17;;;5.80;87.20;;;;;;5017106;28;20487;-39
2022/03/01 02:55:09;;;;;;;8.23;6.53;;;5.70;87.00;;;;;;5026381;28;20424;-39
2022/03/01 02:57:34;;;;;;;9.57;6.53;;;5.70;87.50;;;;;;4976444;28;1093825;-39
2022/03/01 03:00:02;;;;;;;8.67;7.30;;;5.60;87.40;;;;;;5027128;28;20222;-40
2022/03/01 03:02:28;;;;;;;11.60;7.70;;;5.50;87.80;;;;;;5027682;28;20281;-39
2022/03/01 03:04:54;;;;;;;9.77;7.30;;;5.60;88.20;;;;;;5027318;28;20425;-38
2022/03/01 03:07:19;;;;;;;9.27;7.00;;;5.40;88.80;;;;;;5017524;28;20477;-38
2022/03/01 03:09:45;;;;;;;9.57;6.93;;;5.30;89.30;;;;;;5025253;28;20233;-39
2022/03/01 03:12:11;;;;;;;9.90;6.53;;;5.40;89.70;;;;;;5027555;28;20190;-39
2022/03/01 03:14:37;;;;;;;10.17;7.07;;;5.30;89.60;;;;;;5027650;28;20217;-38
2022/03/01 03:17:03;;;;;;;10.87;7.53;;;5.40;90.00;;;;;;5027443;28;20425;-39
2022/03/01 03:19:29;;;;;;;8.70;7.20;;;5.50;90.00;;;;;;5027417;28;20281;-39
2022/03/01 03:21:55;;;;;;;10.77;7.20;;;5.40;90.10;;;;;;5006832;28;20888;-39
2022/03/01 03:24:21;;;;;;;9.10;6.80;;;5.30;90.20;;;;;;5026997;28;20273;-39
2022/03/01 03:26:46;;;;;;;9.23;7.17;;;5.30;89.50;;;;;;5019591;28;20279;-39
2022/03/01 03:29:12;;;;;;;11.50;7.73;;;5.40;89.60;;;;;;5027508;28;20273;-39
2022/03/01 03:31:39;;;;;;;11.23;6.93;;;5.40;90.00;;;;;;5033418;28;20253;-39
2022/03/01 03:34:08;;;;;;;10.07;7.80;;;5.40;89.70;;;;;;5045920;28;20194;-39
2022/03/01 03:36:37;;;;;;;9.57;7.20;;;5.50;89.50;;;;;;5037334;28;20552;-39
2022/03/01 03:39:05;;;;;;;11.33;7.50;;;5.60;90.20;;;;;;5021576;28;20428;-39
2022/03/01 03:41:31;;;;;;;11.40;7.63;;;5.60;90.00;;;;;;5026195;28;20421;-40
2022/03/01 03:43:58;;;;;;;9.90;7.80;;;5.70;90.10;;;;;;5027353;28;20788;-39
2022/03/01 03:46:24;;;;;;;10.53;7.50;;;5.50;89.90;;;;;;5026819;28;20483;-39
2022/03/01 03:48:49;;;;;;;12.73;8.03;;;5.80;90.20;;;;;;5026949;28;20425;-39
2022/03/01 03:51:15;;;;;;;8.90;6.90;;;5.80;90.10;;;;;;5022364;28;20186;-39
2022/03/01 03:53:41;;;;;;;8.60;7.67;;;5.80;89.90;;;;;;5021903;28;20190;-39
2022/03/01 03:56:07;;;;;;;10.07;7.07;;;5.60;89.70;;;;;;5026994;28;20578;-39
2022/03/01 03:58:33;;;;;;;8.63;7.33;;;5.70;90.00;;;;;;5027073;28;20508;-39
2022/03/01 04:00:59;;;;;;;10.67;7.20;;;5.90;89.60;;;;;;5026589;28;20193;-39
2022/03/01 04:03:24;;;;;;;8.70;7.47;;;5.80;89.90;;;;;;5026836;28;20502;-39
2022/03/01 04:05:50;;;;;;;13.17;7.10;;;5.80;89.20;;;;;;5029091;28;20198;-39
2022/03/01 04:08:17;;;;;;;9.77;7.80;;;6.00;89.40;;;;;;5021048;28;20461;-39
2022/03/01 04:10:44;;;;;;;11.10;7.50;;;5.80;89.60;;;;;;5029027;28;20429;-39
2022/03/01 04:13:10;;;;;;;8.67;7.20;;;5.80;90.00;;;;;;5030671;28;20947;-38
2022/03/01 04:15:36;;;;;;;8.50;7.47;;;5.90;89.70;;;;;;5031205;28;20420;-39
2022/03/01 04:18:02;;;;;;;13.03;7.60;;;5.70;89.70;;;;;;5030906;28;20428;-39
2022/03/01 04:20:27;;;;;;;9.87;7.60;;;5.80;89.30;;;;;;5030034;28;20429;-39
2022/03/01 04:22:53;;;;;;;9.70;7.40;;;5.90;89.20;;;;;;5021067;28;20488;-39
2022/03/01 04:25:19;;;;;;;10.97;8.23;;;5.90;89.20;;;;;;5030683;28;20201;-39
2022/03/01 04:27:45;;;;;;;10.93;7.60;;;5.90;88.90;;;;;;5030602;28;20618;-39
2022/03/01 04:30:12;;;;;;;10.37;8.17;;;5.90;89.60;;;;;;5029910;28;20413;-39
2022/03/01 04:32:42;;;;;;;10.37;7.30;;;5.90;88.70;;;;;;5030557;28;20436;-39
2022/03/01 04:35:09;;;;;;;10.40;7.10;;;5.90;88.70;;;;;;5030629;28;20412;-39
2022/03/01 04:37:36;;;;;;;10.07;8.00;;;5.80;89.50;;;;;;5020532;28;20444;-39
2022/03/01 04:40:07;;;;;;;12.40;7.70;;;5.90;89.10;;;;;;5022745;28;20463;-39
2022/03/01 04:42:33;;;;;;;10.73;7.80;;;6.00;88.70;;;;;;5030270;28;20424;-39
2022/03/01 04:44:59;;;;;;;9.87;7.13;;;5.90;88.90;;;;;;5030581;28;20421;-39
2022/03/01 04:47:25;;;;;;;9.20;6.80;;;5.90;89.40;;;;;;5030407;28;20296;-39
2022/03/01 04:49:51;;;;;;;12.63;8.00;;;5.80;88.70;;;;;;5029331;28;20716;-40
2022/03/01 04:52:17;;;;;;;10.80;7.87;;;6.00;89.40;;;;;;5019848;28;20438;-39
2022/03/01 04:54:43;;;;;;;12.23;7.80;;;5.90;89.70;;;;;;5027356;28;20440;-39
2022/03/01 04:57:09;;;;;;;9.93;7.50;;;6.00;89.00;;;;;;5030007;28;20959;-39
2022/03/01 04:59:35;;;;;;;8.00;7.20;;;5.80;89.00;;;;;;5029515;28;20432;-39
2022/03/01 05:02:00;;;;;;;12.20;8.23;;;5.90;89.50;;;;;;5029852;28;20424;-39
2022/03/01 05:04:26;;;;;;;11.83;7.63;;;6.00;90.00;;;;;;5029893;28;20194;-39
2022/03/01 05:06:52;;;;;;;11.07;7.93;;;5.90;90.00;;;;;;5026172;28;20206;-40
2022/03/01 05:09:20;;;;;;;9.07;7.20;;;6.00;89.70;;;;;;5021717;28;20281;-39
2022/03/01 05:11:50;;;;;;;12.07;8.00;;;5.90;89.50;;;;;;5029271;28;21034;-39
2022/03/01 05:14:17;;;;;;;9.90;7.97;;;6.00;90.20;;;;;;5030018;28;20471;-39
2022/03/01 05:16:45;;;;;;;11.40;8.17;;;5.90;90.10;;;;;;5029097;28;20417;-39
2022/03/01 05:19:11;;;;;;;9.70;7.80;;;5.70;90.20;;;;;;5029931;28;20456;-40
2022/03/01 05:21:37;;;;;;;10.63;7.87;;;5.90;90.30;;;;;;5046612;28;20809;-39
2022/03/01 05:24:04;;;;;;;10.47;8.03;;;5.70;90.40;;;;;;5023425;28;20429;-39
2022/03/01 05:26:30;;;;;;;9.93;7.93;;;5.70;89.80;;;;;;5029175;28;20429;-39
2022/03/01 05:28:55;;;;;;;12.43;8.70;;;5.80;90.10;;;;;;5030131;28;20908;-39
2022/03/01 05:31:21;;;;;;;13.63;8.73;;;5.90;90.00;;;;;;5027312;28;20563;-40
2022/03/01 05:33:47;;;;;;;11.33;8.40;;;5.90;89.40;;;;;;5029726;28;20190;-39
2022/03/01 05:36:14;;;;;;;10.30;7.63;;;5.90;89.90;;;;;;5029444;28;20421;-39
2022/03/01 05:38:41;;;;;;;13.53;8.60;;;5.90;89.40;;;;;;5019852;28;20478;-39
2022/03/01 05:41:08;;;;;;;10.77;8.03;;;5.60;89.60;;;;;;5028501;28;20437;-39
2022/03/01 05:43:34;;;;;;;10.20;8.00;;;5.70;89.90;;;;;;5033015;28;20937;-39
2022/03/01 05:46:00;;;;;;;13.80;9.13;;;5.70;90.30;;;;;;5027881;28;20421;-39
2022/03/01 05:48:26;;;;;;;11.97;7.87;;;5.70;90.00;;;;;;5029532;28;20467;-39
2022/03/01 05:50:53;;;;;;;11.73;8.50;;;5.80;89.50;;;;;;5041192;28;20445;-39
2022/03/01 05:53:19;;;;;;;11.20;7.97;;;5.80;89.50;;;;;;5016017;28;20484;-39
2022/03/01 05:55:45;;;;;;;11.27;8.73;;;5.50;89.10;;;;;;5028445;28;20483;-40
2022/03/01 05:58:10;;;;;;;10.70;7.97;;;5.60;89.60;;;;;;5028886;28;20433;-39
2022/03/01 06:00:36;;;;;;;12.67;8.10;;;5.70;89.80;;;;;;5044761;28;20432;-39
2022/03/01 06:03:02;;;;;;;12.30;8.30;;;5.60;89.60;;;;;;5041387;28;20653;-40
2022/03/01 06:05:29;;;;;;;12.47;8.87;;;5.70;89.60;;;;;;5048974;28;20185;-39
2022/03/01 06:07:58;;;;;;;14.10;8.43;;;5.70;89.30;;;;;;5031269;28;20801;-38
2022/03/01 06:10:25;;;;;;;12.37;8.00;;;5.70;89.20;;;;;;5027442;28;20428;-39
2022/03/01 06:12:51;;;;;;;13.10;7.93;;;5.60;89.70;;;;;;5027407;28;20423;-40
2022/03/01 06:15:16;;;;;;;12.00;8.23;;;5.60;90.10;;;;;;5027504;28;20784;-39
2022/03/01 06:17:42;;;;;;;12.47;8.00;;;5.70;89.70;;;;;;5027988;28;20544;-39
2022/03/01 06:20:10;;;;;;;16.13;8.43;;;5.60;89.50;;;;;;5010298;28;20190;-40
2022/03/01 06:22:36;;;;;;;12.27;8.40;;;5.60;89.40;;;;;;5030967;28;20454;-39
2022/03/01 06:25:03;;;;;;;12.03;8.03;;;5.70;89.90;;;;;;5025521;28;20410;-39
2022/03/01 06:27:29;;;;;;;13.83;8.67;;;5.50;88.90;;;;;;5027621;28;20506;-39
2022/03/01 06:29:55;;;;;;;10.60;7.90;;;5.70;89.30;;;;;;5027911;28;20425;-39
2022/03/01 06:32:21;;;;;;;14.17;9.07;;;5.60;89.40;;;;;;5027539;28;20182;-39
2022/03/01 06:34:47;;;;;;;14.10;7.87;;;5.70;89.60;;;;;;5028397;28;20959;-39
2022/03/01 06:37:13;;;;;;;12.17;8.80;;;5.50;89.00;;;;;;5025986;28;20185;-39
2022/03/01 06:39:46;;;;;;;11.90;7.80;;;5.60;88.80;;;;;;5019495;28;20765;-39
2022/03/01 06:42:12;;;;;;;12.20;8.50;;;5.50;89.10;;;;;;5027972;28;20499;-39
2022/03/01 06:44:39;;;;;;;12.20;8.33;;;5.70;89.20;;;;;;5027149;28;20426;-40
2022/03/01 06:47:05;;;;;;;10.83;8.30;;;5.40;88.90;;;;;;5023575;28;20471;-39
2022/03/01 06:49:31;;;;;;;10.90;7.13;;;5.60;88.50;;;;;;5028117;28;20417;-40
2022/03/01 06:51:57;;;;;;;12.23;7.70;;;5.80;88.80;;;;;;5026561;28;20488;-40
2022/03/01 06:54:23;;;;;;;17.07;8.67;;;5.70;88.50;;;;;;5017643;28;20429;-40
2022/03/01 06:56:49;;;;;;;13.50;8.40;;;5.90;88.10;;;;;;5026505;28;20452;-39
2022/03/01 06:59:16;;;;;;;9.93;7.30;;;5.80;88.30;;;;;;5028106;28;20452;-39
2022/03/01 07:01:42;;;;;;;12.67;8.00;;;5.80;88.50;;;;;;5024957;28;20631;-39
2022/03/01 07:04:07;;;;;;;11.77;8.50;;;5.80;88.40;;;;;;5026653;28;20448;-39
2022/03/01 07:06:33;;;;;;;11.90;8.00;;;6.00;87.80;;;;;;5026404;28;20483;-39
2022/03/01 07:08:59;;;;;;;10.90;7.87;;;5.70;86.80;;;;;;5014955;28;20191;-39
2022/03/01 07:11:25;;;;;;;10.70;7.73;;;5.90;86.40;;;;;;5021175;28;20433;-39
2022/03/01 07:13:51;;;;;;;12.97;8.17;;;5.90;86.00;;;;;;5028638;28;20417;-39
2022/03/01 07:16:17;;;;;;;13.17;8.70;;;6.10;86.50;;;;;;5028680;28;20420;-39
2022/03/01 07:18:43;;;;;;;10.90;7.83;;;5.80;84.80;;;;;;5027901;28;20959;-39
2022/03/01 07:21:09;;;;;;;12.10;8.00;;;5.90;84.70;;;;;;5026863;28;20205;-39
2022/03/01 07:23:35;;;;;;;13.33;8.90;;;5.90;85.80;;;;;;5022763;28;20437;-39
2022/03/01 07:26:01;;;;;;;12.90;8.30;;;6.00;85.60;;;;;;5021969;28;20416;-39
2022/03/01 07:28:27;;;;;;;11.17;8.10;;;6.00;84.70;;;;;;5026181;28;20232;-39
2022/03/01 07:30:54;;;;;;;12.03;8.20;;;6.00;85.70;;;;;;5025791;28;20429;-39
2022/03/01 07:33:20;;;;;;;13.93;8.70;;;6.00;84.50;;;;;;5016958;28;20524;-40
2022/03/01 07:35:46;;;;;;;13.20;8.60;;;6.10;84.90;;;;;;5028664;28;20499;-39
2022/03/01 07:38:12;;;;;;;12.83;8.03;;;6.00;84.10;;;;;;5021452;28;20190;-39
2022/03/01 07:40:38;;;;;;;12.27;8.33;;;6.10;84.40;;;;;;5025443;28;20479;-39
2022/03/01 07:43:04;;;;;;;13.77;8.10;;;5.80;83.20;;;;;;5027291;28;20413;-39
2022/03/01 07:45:30;;;;;;;14.40;8.60;;;5.90;84.10;;;;;;5026406;28;20194;-39
2022/03/01 07:47:57;;;;;;;13.70;8.13;;;6.20;84.40;;;;;;5026025;28;20465;-39
2022/03/01 07:50:23;;;;;;;13.10;8.60;;;6.10;84.20;;;;;;5026792;28;20189;-39
2022/03/01 07:52:48;;;;;;;12.60;8.83;;;5.90;83.40;;;;;;5025798;28;20421;-39
2022/03/01 07:55:14;;;;;;;11.77;8.13;;;5.90;83.40;;;;;;5023594;28;20561;-39
2022/03/01 07:57:41;;;;;;;13.90;8.40;;;6.00;83.40;;;;;;5026785;28;20190;-39
2022/03/01 08:00:09;;;;;;;11.10;8.50;;;5.90;83.60;;;;;;5026564;28;20660;-39
2022/03/01 08:02:36;;;;;;;13.03;7.67;;;6.20;83.00;;;;;;5026873;28;20456;-40
2022/03/01 08:05:03;;;;;;;14.77;8.10;;;6.40;82.00;;;;;;5027444;28;20429;-40
2022/03/01 08:07:28;;;;;;;11.10;7.87;;;6.40;81.30;;;;;;5032602;28;20989;-39
2022/03/01 08:09:54;;;;;;;13.23;8.13;;;6.90;80.90;;;;;;5022045;28;20437;-42
2022/03/01 08:12:20;;;;;;;10.63;8.53;;;6.90;81.20;;;;;;5023734;28;20190;-39
2022/03/01 08:14:45;;;;;;;12.00;7.57;;;7.00;79.90;;;;;;5026803;28;20178;-39
2022/03/01 08:17:11;;;;;;;11.07;7.50;;;7.00;79.20;;;;;;5023131;28;20190;-39
2022/03/01 08:19:37;;;;;;;13.97;8.20;;;7.30;77.60;;;;;;5016506;28;20222;-39
2022/03/01 08:22:02;;;;;;;11.70;8.00;;;7.60;76.60;;;;;;5024856;28;20493;-39
2022/03/01 08:24:28;;;;;;;12.73;7.80;;;7.60;74.70;;;;;;5025069;28;20300;-39
2022/03/01 08:26:55;;;;;;;13.20;7.90;;;8.00;74.80;;;;;;5027498;28;20611;-39
2022/03/01 08:29:20;;;;;;;10.47;7.63;;;8.20;73.90;;;;;;5027030;28;20436;-39
2022/03/01 08:31:46;;;;;;;10.87;7.67;;;8.50;72.30;;;;;;5026485;28;20550;-39
2022/03/01 08:34:13;;;;;;;10.43;7.40;;;8.50;70.30;;;;;;5025623;28;20250;-39
2022/03/01 08:36:39;;;;;;;11.80;8.20;;;8.40;69.30;;;;;;5027413;28;20905;-39
2022/03/01 08:39:05;;;;;;;12.50;7.33;;;8.30;69.90;;;;;;5019254;28;20460;-40
2022/03/01 08:41:31;;;;;;;10.27;7.83;;;8.70;71.00;;;;;;5024663;28;20218;-39
2022/03/01 08:43:57;;;;;;;10.17;7.50;;;8.50;69.70;;;;;;5027740;28;20421;-39
2022/03/01 08:46:23;;;;;;;13.43;7.93;;;8.40;69.90;;;;;;5047002;28;20412;-39
2022/03/01 08:48:53;;;;;;;11.87;8.17;;;8.30;68.50;;;;;;5041976;28;20471;-39
2022/03/01 08:51:22;;;;;;;13.80;7.40;;;8.40;68.30;;;;;;5037095;28;20416;-39
2022/03/01 08:53:49;;;;;;;9.67;7.43;;;8.60;68.60;;;;;;5036284;28;20425;-39
2022/03/01 08:56:15;;;;;;;11.13;7.43;;;8.50;67.30;;;;;;5028328;28;20483;-39
2022/03/01 08:58:42;;;;;;;12.70;8.07;;;8.80;68.30;;;;;;5030382;28;20790;-40
2022/03/01 09:01:08;;;;;;;18.53;8.13;;;8.60;66.50;;;;;;5003518;28;20430;-40
2022/03/01 09:03:35;;;;;;;10.70;7.40;;;8.70;67.30;;;;;;5027428;28;20424;-39
2022/03/01 09:06:03;;;;;;;11.87;8.13;;;8.70;67.50;;;;;;5029901;28;20951;-39
2022/03/01 09:08:28;;;;;;;9.97;7.47;;;8.80;66.40;;;;;;5027405;28;20536;-39
2022/03/01 09:10:54;;;;;;;10.60;8.40;;;9.10;66.90;;;;;;5034496;28;20413;-39
2022/03/01 09:13:20;;;;;;;11.07;7.67;;;9.10;64.60;;;;;;5029946;28;20186;-39
2022/03/01 09:15:45;;;;;;;9.93;7.10;;;9.30;63.00;;;;;;5030225;28;20230;-39
2022/03/01 09:18:11;;;;;;;10.67;7.10;;;9.20;63.40;;;;;;5030136;28;20197;-40
2022/03/01 09:20:37;;;;;;;14.67;7.70;;;9.30;62.00;;;;;;5037723;28;20193;-39
2022/03/01 09:23:03;;;;;;;9.97;6.90;;;9.30;62.70;;;;;;5050139;28;20607;-40
2022/03/01 09:25:29;;;;;;;12.53;8.00;;;9.40;62.30;;;;;;5021382;28;20340;-40
2022/03/01 09:27:55;;;;;;;13.93;6.53;;;9.30;62.30;;;;;;5029479;28;20461;-39
2022/03/01 09:30:21;;;;;;;11.97;7.33;;;9.40;63.40;;;;;;5029320;28;20425;-39
2022/03/01 09:32:47;;;;;;;10.17;6.83;;;9.60;62.50;;;;;;5029546;28;20190;-40
2022/03/01 09:35:13;;;;;;;12.10;7.87;;;9.70;64.10;;;;;;5029470;28;20424;-39
2022/03/01 09:37:41;;;;;;;10.77;7.50;;;9.70;63.10;;;;;;5029474;28;20417;-39
2022/03/01 09:40:09;;;;;;;10.27;7.13;;;9.60;60.80;;;;;;5015627;28;20445;-40
2022/03/01 09:42:35;;;;;;;11.13;7.50;;;9.50;59.20;;;;;;5028060;28;20490;-39
2022/03/01 09:45:02;;;;;;;11.57;7.00;;;9.40;58.90;;;;;;5029541;28;20425;-39
2022/03/01 09:47:27;;;;;;;9.70;7.10;;;9.20;59.50;;;;;;5029178;28;20506;-40
2022/03/01 09:49:53;;;;;;;11.17;7.30;;;9.20;60.60;;;;;;5028746;28;20425;-39
2022/03/01 09:52:19;;;;;;;12.73;7.57;;;9.10;59.70;;;;;;5028715;28;20193;-39
2022/03/01 09:54:49;;;;;;;12.80;8.23;;;8.80;60.20;;;;;;5019944;28;20761;-40
2022/03/01 09:57:16;;;;;;;11.97;7.83;;;9.00;61.00;;;;;;5024504;28;20847;-39
2022/03/01 09:59:42;;;;;;;10.77;7.40;;;9.00;61.80;;;;;;5025060;28;20516;-39
2022/03/01 10:02:09;;;;;;;9.80;7.30;;;8.90;61.50;;;;;;5027413;28;20504;-39
2022/03/01 10:04:54;;;;;;;11.17;7.10;;;9.10;62.40;;;;;;5026858;28;20478;-39
2022/03/01 10:07:25;;;;;;;11.10;7.57;;;9.20;61.50;;;;;;5007694;28;20527;-40
2022/03/01 10:09:51;;;;;;;11.63;7.70;;;9.30;60.50;;;;;;5013328;28;20783;-39
2022/03/01 10:12:25;;;;;;;11.03;7.57;;;9.10;62.40;;;;;;5028175;28;20421;-39
2022/03/01 10:15:17;;;;;;;12.33;7.10;;;9.20;61.70;;;;;;5028066;28;20427;-39
2022/03/01 10:17:45;;;;;;;10.60;7.53;;;9.40;60.00;;;;;;5027782;28;20433;-40
2022/03/01 10:20:14;;;;;;;12.93;8.00;;;9.50;59.50;;;;;;5032827;28;20431;-40
2022/03/01 10:22:53;;;;;;;11.23;7.77;;;9.70;59.30;;;;;;5048549;28;20452;-40
2022/03/01 10:25:23;;;;;;;11.23;7.90;;;9.70;58.80;;;;;;5024156;28;20438;-39
2022/03/01 10:27:51;;;;;;;10.37;6.80;;;9.80;58.80;;;;;;5028906;28;20891;-40
2022/03/01 10:30:29;;;;;;;11.10;7.97;;;9.80;60.10;;;;;;5027879;28;20425;-40
2022/03/01 10:33:04;;;;;;;9.33;7.70;;;9.80;59.90;;;;;;5027439;28;20421;-39
2022/03/01 10:35:30;;;;;;;11.97;8.10;;;9.80;59.40;;;;;;5028170;28;20416;-40
2022/03/01 10:37:56;;;;;;;13.30;8.43;;;9.70;59.30;;;;;;5028728;28;20434;-40
2022/03/01 10:40:23;;;;;;;10.17;7.27;;;9.80;59.70;;;;;;5019730;28;20445;-39
2022/03/01 10:43:12;;;;;;;11.23;7.20;;;9.90;60.60;;;;;;5028288;28;20179;-40
2022/03/01 10:45:46;;;;;;;9.97;7.23;;;9.90;60.20;;;;;;5023881;28;20417;-40
2022/03/01 10:48:42;;;;;;;9.77;6.97;;;9.90;59.30;;;;;;5028014;28;20962;-39
2022/03/01 10:51:09;;;;;;;14.80;8.40;;;9.90;59.70;;;;;;5017832;28;20429;-40
2022/03/01 10:53:39;;;;;;;11.47;7.20;;;9.90;59.80;;;;;;5028179;28;20516;-39
2022/03/01 10:56:07;;;;;;;8.80;7.30;;;10.00;59.40;;;;;;5017277;28;20421;-39
2022/03/01 10:58:36;;;;;;;16.10;8.00;;;9.90;60.10;;;;;;5027811;28;20440;-40
2022/03/01 11:01:03;;;;;;;12.43;7.70;;;10.00;58.80;;;;;;5027433;28;20851;-39
2022/03/01 11:03:30;;;;;;;10.43;7.90;;;9.90;59.50;;;;;;5027780;28;20475;-40
2022/03/01 11:05:56;;;;;;;11.07;7.80;;;9.90;60.70;;;;;;5028240;28;20425;-39
2022/03/01 11:08:27;;;;;;;10.87;7.73;;;10.00;60.30;;;;;;5027836;28;20465;-39
2022/03/01 11:10:53;;;;;;;10.80;8.00;;;10.10;60.20;;;;;;5019349;28;20591;-39
2022/03/01 11:13:20;;;;;;;10.23;7.80;;;10.10;59.90;;;;;;5027257;28;20702;-39
2022/03/01 11:16:12;;;;;;;12.20;7.33;;;10.20;59.60;;;;;;5027931;28;20436;-39
2022/03/01 11:18:54;;;;;;;9.40;7.27;;;10.10;60.20;;;;;;5016231;28;20422;-39
2022/03/01 11:21:21;;;;;;;10.00;7.40;;;10.40;59.40;;;;;;5041709;28;20434;-39
2022/03/01 11:23:48;;;;;;;10.50;7.67;;;10.30;59.20;;;;;;5047819;28;20426;-39
2022/03/01 11:26:16;;;;;;;11.47;7.67;;;10.30;59.90;;;;;;5020511;28;20506;-39
2022/03/01 11:28:56;;;;;;;11.17;7.33;;;10.50;60.20;;;;;;5027358;28;20468;-39
2022/03/01 11:31:24;;;;;;;9.97;7.17;;;10.50;60.20;;;;;;5027086;28;20417;-39
2022/03/01 11:33:58;;;;;;;10.70;7.50;;;10.40;58.80;;;;;;5027157;28;20858;-39
2022/03/01 11:36:27;;;;;;;10.43;7.87;;;10.30;58.60;;;;;;5027885;28;20889;-40
2022/03/01 11:38:53;;;;;;;11.10;7.87;;;10.40;58.70;;;;;;5027582;28;20433;-40
2022/03/01 11:41:22;;;;;;;9.73;7.50;;;10.10;59.10;;;;;;5015980;28;20447;-40
2022/03/01 11:43:57;;;;;;;9.67;7.43;;;10.30;59.50;;;;;;5027322;28;20869;-40
2022/03/01 11:46:23;;;;;;;11.23;7.90;;;10.10;59.10;;;;;;5027281;28;20420;-39
2022/03/01 11:48:54;;;;;;;10.90;8.40;;;10.20;59.80;;;;;;5027161;28;20468;-40
2022/03/01 11:51:36;;;;;;;10.50;7.27;;;10.30;60.00;;;;;;5026093;28;20420;-39
2022/03/01 11:54:07;;;;;;;8.93;7.03;;;10.20;59.30;;;;;;5027233;28;20421;-39
2022/03/01 11:56:35;;;;;;;11.90;8.20;;;10.40;58.40;;;;;;5010269;28;20476;-39
2022/03/01 11:59:10;;;;;;;10.33;7.50;;;10.30;58.30;;;;;;5026809;28;20429;-39
2022/03/01 12:01:37;;;;;;;11.90;7.93;;;10.20;58.50;;;;;;5026464;28;20803;-39
2022/03/01 12:04:06;;;;;;;13.40;8.90;;;10.30;58.90;;;;;;5027169;28;20416;-39
2022/03/01 12:06:34;;;;;;;13.13;8.77;;;10.50;58.70;;;;;;5027326;28;20413;-40
2022/03/01 12:09:03;;;;;;;12.23;7.40;;;10.50;59.60;;;;;;5026006;28;20509;-39
2022/03/01 12:11:37;;;;;;;13.17;8.63;;;11.10;59.50;;;;;;5011900;28;20734;-40
2022/03/01 12:14:12;;;;;;;12.30;8.60;;;11.40;58.80;;;;;;5027080;28;20493;-40
2022/03/01 12:16:39;;;;;;;11.50;8.00;;;11.40;58.20;;;;;;5025912;28;21038;-39
2022/03/01 12:19:15;;;;;;;10.93;9.07;;;11.40;58.30;;;;;;5027355;28;20495;-39
2022/03/01 12:21:48;;;;;;;18.47;8.83;;;11.50;58.00;;;;;;5043228;28;20748;-39
2022/03/01 12:24:14;;;;;;;13.60;7.60;;;11.50;58.30;;;;;;5046034;28;20832;-40
2022/03/01 12:26:54;;;;;;;13.50;8.90;;;11.30;58.40;;;;;;5019749;28;20461;-39
2022/03/01 12:29:26;;;;;;;10.90;8.20;;;11.10;57.50;;;;;;5029322;28;20990;-39
2022/03/01 12:32:00;;;;;;;11.53;7.40;;;10.90;58.30;;;;;;5030853;28;20512;-40
2022/03/01 12:34:28;;;;;;;11.27;7.43;;;10.90;59.20;;;;;;5029479;28;20427;-39
2022/03/01 12:36:57;;;;;;;11.23;8.83;;;10.90;60.30;;;;;;5031435;28;20915;-40
2022/03/01 12:39:24;;;;;;;10.63;7.63;;;10.80;58.70;;;;;;5031100;28;20586;-39
2022/03/01 12:41:51;;;;;;;11.63;7.70;;;10.90;59.40;;;;;;5023398;28;20460;-39
2022/03/01 12:44:19;;;;;;;12.60;8.43;;;10.90;59.60;;;;;;5030443;28;20413;-39
2022/03/01 12:46:45;;;;;;;12.57;8.13;;;11.00;58.70;;;;;;5030081;28;20609;-39
2022/03/01 12:49:13;;;;;;;9.87;7.70;;;10.90;58.70;;;;;;5030567;28;20521;-40
2022/03/01 12:51:40;;;;;;;11.70;8.20;;;10.90;59.00;;;;;;5028868;28;20424;-40